Wednesday, October 22, 2014, 9:33 PM EDT

KPHF, Williamsburg International Airport

Location: Newport News, VA, United States Lat: 37.133
Local Time: 9:33 PM EDT ( 1:33 GMT) Lon: -76.5
Time Zone: US/Eastern Elev: 42 ft

Show me the last for .
Show Decoded

2014-10-22 20:54 METAR KPHF 230054Z AUTO 32016G22KT 10SM BKN022 BKN030 OVC047 14/09 A2990 RMK AO2
                 PK WND 34026/0008 SLP125 T01390094 TSNO =
2014-10-22 19:54 METAR KPHF 222354Z AUTO 32011G19KT 10SM OVC018 14/10 A2990 RMK AO2 SLP125 60002
                 T01390100 10156 20139 51014 TSNO =
2014-10-22 18:54 METAR KPHF 222254Z AUTO 34012G21KT 10SM BKN018 OVC023 14/10 A2989 RMK AO2 SLP120
                 T01390100 TSNO =
2014-10-22 17:54 METAR KPHF 222154Z AUTO 33011G21KT 10SM OVC017 14/11 A2987 RMK AO2 RAE2056
                 SLP115 P0000 T01390106 TSNO =
2014-10-22 16:54 METAR KPHF 222054Z AUTO 32015G20KT 10SM -RA OVC016 14/11 A2986 RMK AO2 SLP110
                 P0001 60002 T01390111 51002 TSNO =
2014-10-22 16:50 METAR KPHF 222050Z AUTO 32014G22KT 10SM -RA OVC016 14/11 A2986 RMK AO2 P0001
                 TSNO =
2014-10-22 15:54 METAR KPHF 221954Z AUTO 32011G21KT 3SM -RA OVC013 14/11 A2985 =
2014-10-22 15:40 METAR KPHF 221940Z AUTO 32012G22KT 4SM -RA BKN014 OVC020 14/11 A2985 RMK AO2 PK
                 WND 33026/1902 RAE13B35 P0000 T01390111 TSNO =
2014-10-22 15:23 METAR KPHF 221923Z AUTO 33017G23KT 9SM BKN016 OVC021 14/11 A2985 RMK AO2 PK WND
                 33026/1902 RAE13 P0000 T01440111 TSNO =
2014-10-22 14:54 METAR KPHF 221854Z 33013G22KT 8SM -RA OVC013 14/11 A2985 RMK AO2 RAB20 SLP106
                 P0000 T01440111 =
2014-10-22 14:38 METAR KPHF 221838Z 33012KT 3SM -RA OVC014 14/11 A2985 =
2014-10-22 13:54 METAR KPHF 221754Z 33013G25KT 10SM OVC016 16/11 A2984 RMK AO2 PK WND 33026/1736
                 SLP105 60007 T01560106 10161 20133 58003 =
2014-10-22 12:54 METAR KPHF 221654Z 31012G21KT 10SM BKN018 BKN027 OVC037 16/11 A2985 RMK AO2 PK
                 WND 34026/1600 SLP106 T01560111 =
2014-10-22 11:54 METAR KPHF 221554Z 32011KT 280V340 10SM OVC016 16/11 A2985 RMK AO2 SLP108
                 T01560111 =
2014-10-22 10:54 METAR KPHF 221454Z 33014G20KT 10SM BKN016 OVC025 15/11 A2985 =
2014-10-22 09:54 METAR KPHF 221354Z 32008G17KT 9SM OVC010 13/11 A2986 RMK AO2 SLP109 T01330106 =
2014-10-22 08:54 METAR KPHF 221254Z 31008KT 10SM OVC011 13/11 A2985 RMK AO2 RAE26 SLP107 P0007
                 T01330106 =
2014-10-22 08:22 METAR KPHF 221222Z 31007KT 6SM -RA OVC011 13/11 A2985 RMK AO2 P0007 T01330106 =
2014-10-22 08:11 METAR KPHF 221211Z 30007G19KT 2SM +RA OVC011 13/11 A2985 RMK AO2 P0007 T01330106
                 =
2014-10-22 07:54 METAR KPHF 221154Z 30011G18KT 4SM +RA OVC012 13/11 A2984 =
2014-10-22 06:54 METAR KPHF 221054Z 30010KT 10SM OVC013 14/10 A2983 RMK AO2 SLP100 T01390100 =
2014-10-22 05:54 METAR KPHF 220954Z 31007KT 10SM OVC012 14/11 A2983 RMK AO2 RAB14E28 SLP099 P0000
                 T01390106 =
2014-10-22 04:54 METAR KPHF 220854Z 31009KT 10SM OVC011 14/11 A2982 RMK AO2 SLP097 60000
                 T01390106 56008 =
2014-10-22 03:54 METAR KPHF 220754Z 32006KT 10SM BKN012 OVC020 14/11 A2983 RMK AO2 RAB19E32
                 SLP100 P0000 T01390106 =
2014-10-22 02:54 METAR KPHF 220654Z 32005KT 10SM OVC014 14/11 A2983 RMK AO2 SLP101 T01440106 =
2014-10-22 02:39 METAR KPHF 220639Z 34007KT 10SM BKN014 OVC020 14/11 A2983 RMK AO2 T01440106 =
2014-10-22 02:28 METAR KPHF 220628Z 33007KT 10SM BKN016 BKN020 14/11 A2984 RMK AO2 T01390106 =
2014-10-22 01:54 METAR KPHF 220554Z 33007KT 10SM FEW014 FEW075 BKN110 14/11 A2984 RMK AO2 SLP105
                 60000 T01390106 10200 20139 56011 =
2014-10-22 00:54 METAR KPHF 220454Z 33006KT 10SM CLR 14/10 A2985 RMK AO2 SLP108 T01440100
                 402440139 =
2014-10-21 23:54 METAR KPHF 220354Z 33008KT 10SM SCT090 BKN110 16/11 A2986 RMK AO2 RAB07E17
                 SLP110 P0000 T01560106 =
2014-10-21 22:54 METAR KPHF 220254Z 31009KT 10SM BKN090 BKN110 17/12 A2988 RMK AO2 SLP116
                 T01670117 53014 =
2014-10-21 21:54 METAR KPHF 220154Z 33011KT 10SM OVC110 19/11 A2986 RMK AO2 SLP110 T01940111 =

Support USWX by starting your Amazon purchase here.